Terminal Aerodrome Forecast
Issued by NWS Wichita, KS

Home | Current Version | Previous Version | Graphics & Text | Print | Product List | Glossary On
Versions: 1 2 3 4 5 6 7 8 9 10 11 12 13 14
037
FTUS43 KICT 230741 AAB
TAFICT
TAF AMD
KICT 230741Z 2308/2406 18008KT P6SM FEW250
     FM231500 19012G20KT P6SM FEW250
     FM240000 16010KT P6SM SKC=

USA.gov is the U.S. government's official web portal to all federal, state and local government web resources and services.